Time;durP1;ratioP1;P1;durP2;ratioP2;P2;SDS_P1;SDS_P2;PMS_P1;PMS_P2;Temp;Humidity;BMP_temperature;BMP_pressure;BME280_temperature;BME280_humidity;BME280_pressure;Samples;Min_cycle;Max_cycle;Signal;HPM_P1;HPM_P2
2021/04/27 00:00:21;;;;;;;0.00;0.00;;;;;;;-1.90;100.00;100708.79;1754127;81;21115;-45
2021/04/27 00:02:49;;;;;;;0.17;0.17;;;;;;;-1.93;100.00;100709.15;1755355;79;21915;-46
2021/04/27 00:05:17;;;;;;;0.00;0.00;;;;;;;-1.95;100.00;100713.89;1755693;81;21187;-46
2021/04/27 00:07:45;;;;;;;0.20;0.20;;;;;;;-1.96;100.00;100717.58;1755429;81;21135;-46
2021/04/27 00:10:14;;;;;;;0.08;0.08;;;;;;;-1.97;100.00;100721.28;1752043;81;21138;-46
2021/04/27 00:12:42;;;;;;;0.00;0.00;;;;;;;-1.99;100.00;100723.31;1686946;84;21162;-45
2021/04/27 00:15:14;;;;;;;0.00;0.00;;;;;;;-2.01;100.00;100715.98;1717129;83;21137;-46
2021/04/27 00:17:41;;;;;;;0.10;0.10;;;;;;;-2.04;100.00;100718.53;1711618;82;21110;-46
2021/04/27 00:20:09;;;;;;;0.00;0.00;;;;;;;-2.07;100.00;100716.23;1729594;82;21141;-45
2021/04/27 00:22:37;;;;;;;0.10;0.10;;;;;;;-2.10;100.00;100707.73;1729643;82;21162;-46
2021/04/27 00:25:06;;;;;;;0.00;0.00;;;;;;;-2.13;100.00;100710.80;1729672;82;21162;-45
2021/04/27 00:27:34;;;;;;;0.00;0.00;;;;;;;-2.17;100.00;100707.69;1713378;82;21143;-46
2021/04/27 00:30:02;;;;;;;0.78;0.23;;;;;;;-2.21;100.00;100714.43;1700122;84;21490;-45
2021/04/27 00:32:29;;;;;;;0.10;0.10;;;;;;;-2.24;100.00;100704.11;1700150;84;21142;-47
2021/04/27 00:34:57;;;;;;;0.10;0.10;;;;;;;-2.28;100.00;100710.84;1703395;82;21154;-46
2021/04/27 00:37:24;;;;;;;0.20;0.20;;;;;;;-2.30;100.00;100711.54;1744854;82;21454;-45
2021/04/27 00:39:52;;;;;;;0.10;0.10;;;;;;;-2.32;100.00;100708.25;1717171;82;21138;-45
2021/04/27 00:42:36;;;;;;;0.00;0.00;;;;;;;-2.34;100.00;100703.06;1745123;82;21149;-46
2021/04/27 00:45:08;;;;;;;0.13;0.13;;;;;;;-2.35;100.00;100708.59;1717908;81;21138;-45
2021/04/27 00:47:36;;;;;;;0.10;0.10;;;;;;;-2.39;100.00;100706.82;1712710;82;21192;-46
2021/04/27 00:50:05;;;;;;;0.00;0.00;;;;;;;-2.40;100.00;100707.82;1722902;83;21000;-45
2021/04/27 00:52:33;;;;;;;0.45;0.30;;;;;;;-2.43;100.00;100708.20;1722853;83;21116;-45
2021/04/27 00:55:03;;;;;;;0.10;0.10;;;;;;;-2.46;100.00;100708.59;1731262;82;21094;-46
2021/04/27 00:57:31;;;;;;;0.10;0.10;;;;;;;-2.46;100.00;100711.27;1732468;82;21138;-45
2021/04/27 00:59:58;;;;;;;0.00;0.00;;;;;;;-2.49;100.00;100708.97;1732310;81;21528;-46
2021/04/27 01:02:26;;;;;;;0.00;0.00;;;;;;;-2.51;100.00;100708.32;1716020;81;21134;-46
2021/04/27 01:04:55;;;;;;;0.10;0.10;;;;;;;-2.54;100.00;100706.84;1737044;81;21923;-46
2021/04/27 01:07:22;;;;;;;0.10;0.10;;;;;;;-2.55;100.00;100709.70;1755622;80;21122;-45
2021/04/27 01:09:54;;;;;;;0.10;0.10;;;;;;;-2.61;100.00;100704.08;1736451;81;21419;-46
2021/04/27 01:12:36;;;;;;;0.15;0.15;;;;;;;-2.64;100.00;100700.97;1754913;81;21162;-45
2021/04/27 01:15:08;;;;;;;0.15;0.15;;;;;;;-2.69;100.00;100700.18;1736355;81;21130;-46
2021/04/27 01:17:37;;;;;;;0.42;0.42;;;;;;;-2.71;100.00;100690.69;1709075;81;21130;-45
2021/04/27 01:20:19;;;;;;;0.00;0.00;;;;;;;-2.76;100.00;100684.55;1720899;81;21564;-45
2021/04/27 01:23:15;;;;;;;0.03;0.03;;;;;;;-2.78;100.00;100687.91;1754969;81;21214;-46
2021/04/27 01:26:01;;;;;;;0.10;0.10;;;;;;;-2.81;100.00;100690.45;1756058;81;21179;-46
2021/04/27 01:28:32;;;;;;;0.65;0.37;;;;;;;-2.82;100.00;100687.95;1756125;81;21213;-46
2021/04/27 01:31:00;;;;;;;0.10;0.10;;;;;;;-2.84;100.00;100688.67;1755926;81;21155;-45
2021/04/27 01:33:29;;;;;;;0.10;0.10;;;;;;;-2.86;100.00;100689.36;1736405;81;21139;-46
2021/04/27 01:35:58;;;;;;;0.00;0.00;;;;;;;-2.84;100.00;100692.69;1750928;81;21218;-46
2021/04/27 01:38:26;;;;;;;0.13;0.13;;;;;;;-2.84;100.00;100689.50;1722319;81;21653;-45
2021/04/27 01:40:54;;;;;;;0.10;0.10;;;;;;;-2.84;100.00;100690.01;1755738;81;21134;-45
2021/04/27 01:43:22;;;;;;;0.03;0.03;;;;;;;-2.84;100.00;100684.66;1712187;81;21115;-45
2021/04/27 01:45:58;;;;;;;0.10;0.10;;;;;;;-2.83;100.00;100688.98;1755664;81;21495;-46
2021/04/27 01:48:26;;;;;;;0.08;0.08;;;;;;;-2.82;100.00;100687.95;1741305;81;21707;-45
2021/04/27 01:50:54;;;;;;;0.08;0.08;;;;;;;-2.81;100.00;100684.28;1750636;81;21613;-46
2021/04/27 01:53:41;;;;;;;0.47;0.47;;;;;;;-2.82;100.00;100687.95;1725871;81;21209;-46
2021/04/27 01:56:09;;;;;;;0.10;0.10;;;;;;;-2.85;100.00;100688.33;1751036;81;21994;-46
2021/04/27 01:58:39;;;;;;;0.20;0.20;;;;;;;-2.89;100.00;100682.54;1755242;81;21293;-46
2021/04/27 02:01:06;;;;;;;0.10;0.10;;;;;;;-2.91;100.00;100683.74;1755882;81;21163;-46
2021/04/27 02:03:45;;;;;;;0.20;0.20;;;;;;;-2.93;100.00;100683.09;1736341;81;21147;-46
2021/04/27 02:06:28;;;;;;;0.10;0.10;;;;;;;-2.95;100.00;100681.11;1755836;81;21131;-46
2021/04/27 02:09:04;;;;;;;0.00;0.00;;;;;;;-2.98;100.00;100685.49;1731747;81;21114;-45
2021/04/27 02:11:40;;;;;;;0.10;0.10;;;;;;;-3.00;100.00;100687.52;1750954;81;21139;-45
2021/04/27 02:14:09;;;;;;;0.30;0.30;;;;;;;-3.04;100.00;100681.20;1750902;81;21147;-45
2021/04/27 02:16:55;;;;;;;0.10;0.10;;;;;;;-3.06;100.00;100685.91;1750679;81;21174;-46
2021/04/27 02:19:28;;;;;;;0.00;0.00;;;;;;;-3.08;100.00;100678.56;1719317;83;21136;-46
2021/04/27 02:22:06;;;;;;;0.20;0.20;;;;;;;-3.09;100.00;100684.94;1720085;83;21152;-46
2021/04/27 02:24:38;;;;;;;0.00;0.00;;;;;;;-3.09;100.00;100688.09;1719728;82;21122;-45
2021/04/27 02:27:06;;;;;;;0.10;0.10;;;;;;;-3.10;100.00;100690.46;1697644;83;21135;-45
2021/04/27 02:29:36;;;;;;;0.10;0.10;;;;;;;-3.10;100.00;100691.28;1715121;83;21364;-45
2021/04/27 02:32:05;;;;;;;0.35;0.35;;;;;;;-3.08;100.00;100696.46;1715146;83;21177;-45
2021/04/27 02:34:34;;;;;;;0.13;0.13;;;;;;;-3.07;100.00;100696.26;1711951;83;21147;-45
2021/04/27 02:37:02;;;;;;;0.00;0.00;;;;;;;-3.07;100.00;100690.91;1695166;84;21442;-45
2021/04/27 02:39:34;;;;;;;0.13;0.13;;;;;;;-3.06;100.00;100685.91;1694883;84;21122;-45
2021/04/27 02:42:03;;;;;;;0.00;0.00;;;;;;;-3.06;100.00;100687.23;1699913;82;21151;-45
2021/04/27 02:44:51;;;;;;;0.10;0.10;;;;;;;-3.05;100.00;100689.41;1724231;83;21517;-45
2021/04/27 02:47:20;;;;;;;0.10;0.10;;;;;;;-3.05;100.00;100688.06;1691974;83;21414;-46
2021/04/27 02:49:48;;;;;;;0.65;0.65;;;;;;;-3.05;100.00;100691.56;1724265;83;21426;-46
2021/04/27 02:52:17;;;;;;;0.10;0.10;;;;;;;-3.06;100.00;100687.23;1721577;82;21174;-45
2021/04/27 02:55:06;;;;;;;0.10;0.10;;;;;;;-3.03;100.00;100684.19;1817048;76;28700;-44
2021/04/27 02:57:35;;;;;;;0.10;0.10;;;;;;;-3.06;100.00;100686.42;1786201;80;21086;-44
2021/04/27 03:00:05;;;;;;;0.10;0.10;;;;;;;-3.05;100.00;100683.54;1780110;78;21167;-44
2021/04/27 03:02:34;;;;;;;0.10;0.10;;;;;;;-3.03;100.00;100689.54;1753555;81;21616;-44
2021/04/27 03:05:02;;;;;;;0.00;0.00;;;;;;;-2.97;100.00;100700.51;1752934;80;21115;-43
2021/04/27 03:07:35;;;;;;;0.10;0.10;;;;;;;-2.91;100.00;100701.13;1753027;81;21107;-43
2021/04/27 03:10:04;;;;;;;1.17;1.00;;;;;;;-2.83;100.00;100703.69;1753952;80;21155;-44
2021/04/27 03:12:31;;;;;;;0.08;0.08;;;;;;;-2.71;100.00;100697.38;1753436;81;21131;-43
2021/04/27 03:15:01;;;;;;;0.05;0.05;;;;;;;-2.58;100.00;100690.02;1723655;81;21157;-43
2021/04/27 03:17:30;;;;;;;0.10;0.10;;;;;;;-2.44;100.00;100691.84;1770591;80;21141;-43
2021/04/27 03:19:58;;;;;;;0.00;0.00;;;;;;;-2.27;100.00;100691.93;1750075;80;21158;-43
2021/04/27 03:22:43;;;;;;;0.00;0.00;;;;;;;-2.03;100.00;100685.88;1847820;76;29064;-43
2021/04/27 03:25:11;;;;;;;0.30;0.30;;;;;;;-1.88;100.00;100685.33;1787069;78;21486;-43
2021/04/27 03:27:41;;;;;;;0.10;0.10;;;;;;;-1.66;100.00;100685.28;1786017;80;21125;-44
2021/04/27 03:30:13;;;;;;;0.05;0.05;;;;;;;-1.52;100.00;100686.55;1785522;78;21545;-43
2021/04/27 03:32:41;;;;;;;0.05;0.05;;;;;;;-1.36;100.00;100696.16;1755414;80;21109;-43
2021/04/27 03:35:11;;;;;;;1.60;1.07;;;;;;;-1.18;100.00;100697.52;1785551;78;21118;-43
2021/04/27 03:37:38;;;;;;;2.40;1.32;;;;;;;-1.03;100.00;100704.12;1755406;80;21106;-43
2021/04/27 03:40:07;;;;;;;0.00;0.00;;;;;;;-0.90;100.00;100698.82;1785995;78;21141;-43
2021/04/27 03:42:35;;;;;;;0.42;0.37;;;;;;;-0.79;100.00;100704.13;1786096;80;21019;-43
2021/04/27 03:45:06;;;;;;;0.15;0.15;;;;;;;-0.66;100.00;100706.90;1785901;78;21125;-44
2021/04/27 03:47:33;;;;;;;0.23;0.23;;;;;;;-0.52;100.00;100705.94;1785007;80;21572;-44
2021/04/27 03:50:04;;;;;;;1.02;0.62;;;;;;;-0.27;100.00;100706.75;1784458;78;21564;-44
2021/04/27 03:52:32;;;;;;;0.15;0.15;;;;;;;0.08;100.00;100716.03;1750435;80;21127;-44
2021/04/27 03:54:59;;;;;;;0.00;0.00;;;;;;;0.42;100.00;100709.15;1764973;80;21162;-45
2021/04/27 03:57:26;;;;;;;0.08;0.08;;;;;;;0.78;100.00;100713.26;1743485;81;21450;-45
2021/04/27 03:59:56;;;;;;;0.00;0.00;;;;;;;1.07;100.00;100715.20;1742026;81;21624;-44
2021/04/27 04:02:24;;;;;;;0.35;0.35;;;;;;;1.28;100.00;100721.64;1764137;81;21497;-45
2021/04/27 04:04:51;;;;;;;2.35;1.92;;;;;;;1.46;100.00;100717.48;1781757;80;21153;-45
2021/04/27 04:07:22;;;;;;;0.05;0.05;;;;;;;1.59;100.00;100716.59;1785545;80;21126;-45
2021/04/27 04:10:10;;;;;;;0.30;0.30;;;;;;;1.66;100.00;100707.44;1785719;78;21114;-45
2021/04/27 04:12:38;;;;;;;0.30;0.30;;;;;;;1.74;100.00;100705.55;1785712;80;21134;-45
2021/04/27 04:15:08;;;;;;;0.40;0.40;;;;;;;1.82;100.00;100714.72;1785788;78;21126;-46
2021/04/27 04:17:38;;;;;;;0.00;0.00;;;;;;;1.88;100.00;100711.15;1786007;80;21126;-45
2021/04/27 04:20:12;;;;;;;0.00;0.00;;;;;;;1.96;100.00;100710.92;1755452;80;21134;-46
2021/04/27 04:22:48;;;;;;;0.10;0.10;;;;;;;2.10;100.00;100713.84;1846825;76;29090;-45
2021/04/27 04:25:17;;;;;;;0.20;0.20;;;;;;;2.19;100.00;100724.36;1750221;81;21119;-45
2021/04/27 04:27:45;;;;;;;0.10;0.10;;;;;;;2.31;100.00;100717.23;1728786;80;21580;-45
2021/04/27 04:30:20;;;;;;;0.23;0.23;;;;;;;2.45;100.00;100716.59;1768377;80;21125;-45
2021/04/27 04:32:48;;;;;;;0.10;0.10;;;;;;;2.61;100.00;100715.23;1761288;80;21110;-45
2021/04/27 04:35:33;;;;;;;0.50;0.42;;;;;;;2.80;99.12;100723.69;1754907;81;21481;-44
2021/04/27 04:38:22;;;;;;;0.23;0.23;;;;;;;3.03;98.44;100712.78;1761112;80;21118;-44
2021/04/27 04:41:09;;;;;;;0.65;0.57;;;;;;;3.25;96.65;100707.78;1758270;80;21439;-44
2021/04/27 04:43:55;;;;;;;0.20;0.20;;;;;;;3.44;95.48;100706.73;1758449;80;21157;-44
2021/04/27 04:46:42;;;;;;;0.00;0.00;;;;;;;3.55;92.69;100713.24;1762502;80;21106;-44
2021/04/27 04:49:27;;;;;;;1.25;0.78;;;;;;;3.53;91.03;100719.39;1776444;80;21110;-44
2021/04/27 04:52:15;;;;;;;0.10;0.10;;;;;;;3.47;89.62;100727.88;1772710;80;21106;-44
2021/04/27 04:54:49;;;;;;;0.42;0.37;;;;;;;3.40;88.26;100729.30;1764096;80;21162;-44
2021/04/27 04:57:22;;;;;;;;;;;;;;;3.44;87.80;100721.05;1783903;80;21177;-44
2021/04/27 04:59:49;;;;;;;0.20;0.20;;;;;;;3.50;87.36;100723.91;1758061;80;20267;-44
2021/04/27 05:02:17;;;;;;;0.17;0.17;;;;;;;3.56;86.30;100721.63;1732087;81;21167;-44
2021/04/27 05:05:06;;;;;;;0.20;0.20;;;;;;;3.65;85.52;100725.69;1811734;76;22669;-44
2021/04/27 05:07:46;;;;;;;0.40;0.40;;;;;;;3.66;85.33;100720.60;1772543;80;21144;-43
2021/04/27 05:10:28;;;;;;;0.17;0.17;;;;;;;3.81;84.71;100729.13;1819441;76;22696;-44
2021/04/27 05:12:57;;;;;;;1.17;1.00;;;;;;;3.85;84.13;100727.61;1790187;78;21528;-44
2021/04/27 05:15:25;;;;;;;0.42;0.30;;;;;;;3.96;83.72;100731.97;1784510;80;21117;-44
2021/04/27 05:17:52;;;;;;;0.90;0.47;;;;;;;4.06;83.42;100741.17;1774811;80;21126;-44
2021/04/27 05:20:21;;;;;;;0.53;0.25;;;;;;;4.16;83.24;100735.21;1740901;81;21138;-44
2021/04/27 05:22:49;;;;;;;0.55;0.35;;;;;;;4.27;82.39;100742.52;1726182;81;21142;-44
2021/04/27 05:25:17;;;;;;;0.17;0.13;;;;;;;4.35;81.18;100736.48;1694928;82;21102;-44
2021/04/27 05:27:47;;;;;;;4.58;0.95;;;;;;;4.40;81.28;100741.53;1682874;82;21142;-44
2021/04/27 05:30:15;;;;;;;0.42;0.42;;;;;;;4.50;81.00;100742.28;1722743;82;21129;-44
2021/04/27 05:32:42;;;;;;;0.17;0.17;;;;;;;4.58;80.44;100739.27;1723810;82;21178;-44
2021/04/27 05:35:11;;;;;;;0.50;0.50;;;;;;;4.69;80.66;100737.63;1756557;81;21098;-44
2021/04/27 05:37:38;;;;;;;0.20;0.20;;;;;;;4.80;79.37;100737.33;1756858;81;21099;-44
2021/04/27 05:40:08;;;;;;;0.30;0.30;;;;;;;4.89;79.11;100737.30;1756459;81;21600;-44
2021/04/27 05:42:36;;;;;;;0.42;0.42;;;;;;;5.01;79.40;100734.59;1756605;81;21146;-44
2021/04/27 05:45:05;;;;;;;0.20;0.20;;;;;;;5.13;78.46;100740.30;1756454;81;21585;-44
2021/04/27 05:47:32;;;;;;;1.52;0.55;;;;;;;5.25;78.45;100731.35;1787884;79;21159;-45
2021/04/27 05:50:00;;;;;;;1.30;0.75;;;;;;;5.35;77.45;100726.16;1792078;79;21125;-44
2021/04/27 05:52:27;;;;;;;0.28;0.28;;;;;;;5.46;77.48;100732.06;1727860;81;21172;-45
2021/04/27 05:54:55;;;;;;;0.30;0.30;;;;;;;5.59;76.74;100725.58;1742389;82;21134;-44
2021/04/27 05:57:23;;;;;;;0.80;0.47;;;;;;;5.68;76.14;100727.38;1746723;82;21144;-44
2021/04/27 05:59:50;;;;;;;0.80;0.40;;;;;;;5.76;75.66;100726.48;1746925;82;21140;-45
2021/04/27 06:02:18;;;;;;;0.40;0.40;;;;;;;5.88;75.76;100725.06;1750978;81;21171;-44
2021/04/27 06:04:46;;;;;;;0.50;0.50;;;;;;;5.99;75.62;100726.95;1733567;82;21154;-45
2021/04/27 06:07:13;;;;;;;0.55;0.55;;;;;;;6.12;75.04;100725.83;1749930;81;21550;-45
2021/04/27 06:09:42;;;;;;;0.10;0.10;;;;;;;6.24;74.48;100724.42;1758273;81;21114;-45
2021/04/27 06:12:10;;;;;;;1.22;1.12;;;;;;;6.39;74.04;100723.33;1737187;81;21138;-45
2021/04/27 06:14:38;;;;;;;0.20;0.20;;;;;;;6.50;72.92;100727.03;1763008;81;21142;-45
2021/04/27 06:17:07;;;;;;;1.12;0.30;;;;;;;6.58;71.54;100733.98;1763027;81;21377;-45
2021/04/27 06:19:36;;;;;;;0.28;0.28;;;;;;;6.68;71.74;100728.70;1762752;81;21142;-45
2021/04/27 06:22:03;;;;;;;0.53;0.53;;;;;;;6.82;71.49;100734.08;1762397;81;21114;-45
2021/04/27 06:24:33;;;;;;;4.05;1.50;;;;;;;6.96;70.87;100735.94;1780157;79;21552;-45
2021/04/27 06:27:03;;;;;;;0.25;0.25;;;;;;;7.04;69.16;100740.12;1779395;79;21108;-45
2021/04/27 06:29:33;;;;;;;0.78;0.75;;;;;;;7.04;68.86;100740.12;1750871;81;21164;-45
2021/04/27 06:32:00;;;;;;;0.33;0.20;;;;;;;7.11;68.34;100741.59;1754656;81;21157;-45
2021/04/27 06:34:27;;;;;;;0.75;0.37;;;;;;;7.25;67.91;100746.70;1784742;80;21124;-45
2021/04/27 06:36:55;;;;;;;0.10;0.10;;;;;;;7.43;67.54;100746.94;1792195;79;21095;-45
2021/04/27 06:39:22;;;;;;;0.00;0.00;;;;;;;7.61;66.53;100743.09;1793997;79;21460;-45
2021/04/27 06:41:50;;;;;;;0.30;0.30;;;;;;;7.75;65.40;100745.17;1734746;81;21190;-45
2021/04/27 06:44:18;;;;;;;1.02;0.82;;;;;;;7.89;63.45;100750.25;1734775;82;21157;-45
2021/04/27 06:46:46;;;;;;;0.85;0.40;;;;;;;8.04;61.59;100746.89;1734865;82;21102;-45
2021/04/27 06:49:14;;;;;;;0.13;0.10;;;;;;;8.14;61.28;100741.00;1729304;82;21177;-45
2021/04/27 06:51:41;;;;;;;0.42;0.20;;;;;;;8.22;61.61;100743.80;1705556;82;21161;-45
2021/04/27 06:54:09;;;;;;;0.62;0.62;;;;;;;8.35;61.85;100733.03;1707415;82;21171;-45
2021/04/27 06:56:36;;;;;;;0.50;0.50;;;;;;;8.50;61.40;100743.28;1734772;80;21136;-45
2021/04/27 06:59:07;;;;;;;0.57;0.57;;;;;;;8.67;60.26;100738.53;1723233;82;21184;-45
2021/04/27 07:01:35;;;;;;;0.35;0.17;;;;;;;8.85;59.44;100737.30;1721538;81;21772;-45
2021/04/27 07:04:03;;;;;;;1.27;0.20;;;;;;;8.98;58.61;100731.42;1735090;81;21161;-45
2021/04/27 07:06:30;;;;;;;0.78;0.78;;;;;;;9.07;56.99;100735.02;1737642;82;21065;-45
2021/04/27 07:08:58;;;;;;;0.13;0.13;;;;;;;9.01;55.73;100736.34;1739066;81;21225;-45
2021/04/27 07:11:26;;;;;;;0.80;0.42;;;;;;;8.97;55.31;100739.30;1751657;81;21096;-45
2021/04/27 07:13:54;;;;;;;0.10;0.10;;;;;;;9.01;54.99;100739.07;1747319;81;21137;-45
2021/04/27 07:16:22;;;;;;;0.40;0.35;;;;;;;9.11;55.18;100744.33;1722011;83;21472;-45
2021/04/27 07:18:50;;;;;;;0.25;0.25;;;;;;;9.17;54.96;100739.17;1734294;81;21566;-45
2021/04/27 07:21:20;;;;;;;0.20;0.20;;;;;;;9.29;55.80;100740.34;1751770;81;21155;-45
2021/04/27 07:23:47;;;;;;;0.20;0.10;;;;;;;9.51;55.45;100745.09;1751835;81;21127;-45
2021/04/27 07:26:15;;;;;;;0.95;0.95;;;;;;;9.63;54.28;100743.52;1751790;81;21163;-45
2021/04/27 07:28:43;;;;;;;1.45;0.85;;;;;;;9.67;53.87;100737.83;1751619;81;21143;-45
2021/04/27 07:31:10;;;;;;;0.93;0.90;;;;;;;9.63;52.93;100726.61;1733093;82;21598;-45
2021/04/27 07:33:38;;;;;;;0.75;0.35;;;;;;;9.63;52.20;100732.06;1786475;80;21131;-45
2021/04/27 07:36:07;;;;;;;0.13;0.13;;;;;;;9.74;52.12;100738.37;1718166;82;21154;-45
2021/04/27 07:38:35;;;;;;;0.00;0.00;;;;;;;9.73;51.84;100736.74;1716303;83;21166;-45
2021/04/27 07:41:03;;;;;;;0.05;0.05;;;;;;;9.66;50.77;100730.70;1749501;82;21513;-44
2021/04/27 07:43:33;;;;;;;0.78;0.47;;;;;;;9.64;51.36;100735.60;1749556;82;21170;-45
2021/04/27 07:46:01;;;;;;;1.25;0.68;;;;;;;9.65;51.79;100740.81;1725560;82;21043;-45
2021/04/27 07:48:28;;;;;;;0.75;0.70;;;;;;;9.70;51.95;100740.02;1749680;82;21168;-45
2021/04/27 07:50:56;;;;;;;0.35;0.35;;;;;;;9.86;52.04;100737.60;1749541;82;21132;-45
2021/04/27 07:53:24;;;;;;;1.35;0.35;;;;;;;9.95;51.83;100731.64;1750807;80;22509;-45
2021/04/27 07:55:52;;;;;;;0.05;0.05;;;;;;;10.07;51.81;100737.69;1761889;80;21616;-45
2021/04/27 07:58:19;;;;;;;0.10;0.10;;;;;;;10.23;52.09;100732.52;1786146;80;21125;-45
2021/04/27 08:00:47;;;;;;;0.10;0.10;;;;;;;10.36;51.46;100739.95;1786406;80;21145;-45
2021/04/27 08:03:14;;;;;;;0.60;0.45;;;;;;;10.42;51.16;100719.76;1786526;80;21641;-45
2021/04/27 08:05:42;;;;;;;0.00;0.00;;;;;;;10.42;50.69;100726.59;1750760;81;21108;-45
2021/04/27 08:08:09;;;;;;;0.65;0.65;;;;;;;10.44;50.83;100716.22;1751587;80;21193;-45
2021/04/27 08:10:37;;;;;;;0.23;0.23;;;;;;;10.56;51.15;100714.03;1731840;81;21165;-45
2021/04/27 08:13:05;;;;;;;0.30;0.10;;;;;;;10.60;49.09;100705.55;1710214;83;21146;-45
2021/04/27 08:15:33;;;;;;;0.40;0.40;;;;;;;10.54;50.80;100711.56;1759547;81;21178;-45
2021/04/27 08:18:01;;;;;;;0.30;0.30;;;;;;;10.53;49.44;100714.56;1759728;81;21146;-45
2021/04/27 08:20:30;;;;;;;0.10;0.10;;;;;;;10.40;49.38;100716.47;1759841;81;21620;-45
2021/04/27 08:22:59;;;;;;;0.40;0.30;;;;;;;10.27;49.38;100708.23;1759853;81;21170;-45
2021/04/27 08:25:28;;;;;;;0.00;0.00;;;;;;;10.24;50.45;100716.98;1756347;81;21131;-45
2021/04/27 08:27:55;;;;;;;0.10;0.10;;;;;;;10.38;50.00;100701.70;1760960;79;21118;-45
2021/04/27 08:30:24;;;;;;;0.10;0.10;;;;;;;10.62;50.45;100702.00;1760170;81;21130;-45
2021/04/27 08:32:52;;;;;;;1.65;1.05;;;;;;;10.90;50.12;100706.62;1736483;81;21150;-45
2021/04/27 08:35:20;;;;;;;0.28;0.25;;;;;;;10.99;47.53;100704.98;1759719;81;21178;-45
2021/04/27 08:37:48;;;;;;;0.10;0.10;;;;;;;10.95;48.54;100695.68;1759986;81;21110;-45
2021/04/27 08:40:16;;;;;;;0.42;0.42;;;;;;;11.05;50.33;100688.01;1761833;79;21122;-45
2021/04/27 08:42:48;;;;;;;0.37;0.37;;;;;;;11.26;48.81;100686.05;1763261;81;21178;-45
2021/04/27 08:45:16;;;;;;;;;;;;;;;11.32;48.85;100689.84;1797052;79;21165;-45
2021/04/27 08:47:43;;;;;;;0.30;0.30;;;;;;;11.31;47.02;100682.75;1794611;79;20299;-45
2021/04/27 08:50:13;;;;;;;0.10;0.10;;;;;;;11.36;48.20;100664.13;1741253;81;21594;-45
2021/04/27 08:52:40;;;;;;;2.42;0.57;;;;;;;11.50;47.61;100676.12;1728953;82;20999;-45
2021/04/27 08:55:08;;;;;;;0.30;0.30;;;;;;;11.57;47.17;100675.27;1731544;81;21126;-45
2021/04/27 08:57:36;;;;;;;0.10;0.10;;;;;;;11.65;46.82;100675.77;1740234;82;21170;-45
2021/04/27 09:00:09;;;;;;;0.47;0.37;;;;;;;11.61;45.77;100671.41;1737666;82;21516;-46
2021/04/27 09:02:36;;;;;;;0.20;0.20;;;;;;;11.58;48.15;100668.69;1766047;78;21422;-45
2021/04/27 09:05:09;;;;;;;0.10;0.10;;;;;;;11.62;48.03;100672.52;1759228;81;22100;-45
2021/04/27 09:07:42;;;;;;;0.62;0.62;;;;;;;11.58;48.22;100665.95;1756231;81;27196;-45
2021/04/27 09:10:21;;;;;;;1.37;0.70;;;;;;;11.52;47.41;100662.98;1740484;82;21177;-45
2021/04/27 09:13:01;;;;;;;0.72;0.50;;;;;;;11.41;46.43;100660.81;1741695;82;21140;-45
2021/04/27 09:15:46;;;;;;;0.20;0.20;;;;;;;11.31;46.16;100655.95;1741767;82;21121;-45
2021/04/27 09:18:34;;;;;;;0.25;0.25;;;;;;;11.28;46.75;100656.52;1724411;82;21673;-45
2021/04/27 09:21:09;;;;;;;3.12;0.45;;;;;;;11.31;46.68;100649.92;1711583;83;21624;-45
2021/04/27 09:23:41;;;;;;;0.20;0.20;;;;;;;11.42;46.70;100643.84;1711624;83;21500;-45
2021/04/27 09:26:13;;;;;;;0.28;0.28;;;;;;;11.62;46.90;100643.77;1711972;82;21398;-45
2021/04/27 09:28:50;;;;;;;0.45;0.37;;;;;;;11.92;46.34;100648.84;1712204;83;21163;-45
2021/04/27 09:31:34;;;;;;;0.10;0.10;;;;;;;12.23;45.86;100651.36;1712070;82;21660;-45
2021/04/27 09:34:26;;;;;;;0.10;0.10;;;;;;;12.44;45.03;100645.17;1713170;82;21167;-45
2021/04/27 09:37:08;;;;;;;0.40;0.25;;;;;;;12.47;44.97;100638.55;1723876;83;21137;-45
2021/04/27 09:39:47;;;;;;;0.10;0.10;;;;;;;12.68;43.57;100642.47;1710796;83;21154;-45
2021/04/27 09:42:21;;;;;;;0.20;0.20;;;;;;;12.87;43.79;100642.57;1710912;83;21482;-45
2021/04/27 09:44:51;;;;;;;0.45;0.20;;;;;;;13.01;43.31;100636.66;1710564;83;21297;-45
2021/04/27 09:47:27;;;;;;;0.20;0.20;;;;;;;13.04;43.84;100625.66;1711018;83;21162;-45
2021/04/27 09:50:02;;;;;;;1.40;0.30;;;;;;;13.07;43.08;100624.52;1710744;83;21161;-45
2021/04/27 09:52:33;;;;;;;0.40;0.40;;;;;;;13.03;41.45;100633.08;1747918;81;21174;-45
2021/04/27 09:55:08;;;;;;;0.15;0.15;;;;;;;12.72;41.62;100627.65;1756854;81;21139;-45
2021/04/27 09:57:49;;;;;;;0.37;0.37;;;;;;;12.51;42.02;100627.01;1741646;82;21137;-45
2021/04/27 10:00:38;;;;;;;0.28;0.28;;;;;;;12.38;41.96;100626.56;1791885;80;21375;-45
2021/04/27 10:03:10;;;;;;;3.15;0.42;;;;;;;12.30;41.90;100628.56;1791966;79;21628;-45
2021/04/27 10:05:41;;;;;;;0.23;0.23;;;;;;;12.20;43.16;100631.38;1791941;80;21134;-45
2021/04/27 10:08:11;;;;;;;0.30;0.30;;;;;;;12.17;44.16;100634.70;1791056;80;21130;-45
2021/04/27 10:10:41;;;;;;;3.00;0.60;;;;;;;12.28;43.62;100628.02;1791932;79;21119;-45
2021/04/27 10:13:09;;;;;;;0.10;0.10;;;;;;;12.38;43.43;100623.83;1790727;78;21110;-45
2021/04/27 10:15:37;;;;;;;0.10;0.10;;;;;;;12.60;42.19;100615.69;1757050;81;21152;-45
2021/04/27 10:18:08;;;;;;;0.20;0.20;;;;;;;12.73;42.36;100612.82;1756963;81;21134;-45
2021/04/27 10:20:36;;;;;;;0.20;0.20;;;;;;;12.86;41.63;100612.97;1696286;84;21163;-45
2021/04/27 10:23:07;;;;;;;0.70;0.70;;;;;;;12.89;40.70;100611.00;1711902;83;21109;-45
2021/04/27 10:25:35;;;;;;;0.72;0.45;;;;;;;12.91;40.61;100614.28;1770101;80;21109;-45
2021/04/27 10:28:08;;;;;;;0.30;0.30;;;;;;;13.00;39.48;100606.77;1791790;80;21150;-45
2021/04/27 10:30:42;;;;;;;0.50;0.35;;;;;;;13.04;39.84;100610.02;1791819;80;21129;-45
2021/04/27 10:33:15;;;;;;;0.00;0.00;;;;;;;13.13;39.96;100612.95;1791959;80;21177;-45
2021/04/27 10:36:09;;;;;;;0.55;0.20;;;;;;;13.00;39.50;100616.37;1791791;80;21093;-45
2021/04/27 10:38:48;;;;;;;0.85;0.28;;;;;;;12.79;39.28;100608.38;1788452;80;21138;-46
2021/04/27 10:41:21;;;;;;;0.40;0.40;;;;;;;12.83;40.65;100608.07;1760363;81;21134;-45
2021/04/27 10:43:58;;;;;;;0.47;0.47;;;;;;;12.95;40.00;100608.20;1785320;80;21521;-45
2021/04/27 10:46:37;;;;;;;0.35;0.35;;;;;;;12.95;39.58;100603.53;1790907;80;20940;-45
2021/04/27 10:49:23;;;;;;;0.95;0.30;;;;;;;12.97;39.15;100604.62;1789228;78;21122;-45
2021/04/27 10:51:52;;;;;;;0.10;0.10;;;;;;;12.93;39.42;100602.19;1786990;78;21123;-45
2021/04/27 10:54:34;;;;;;;0.10;0.10;;;;;;;12.76;39.10;100601.27;1778008;80;21150;-45
2021/04/27 10:57:09;;;;;;;0.30;0.30;;;;;;;12.65;39.25;100601.94;1789897;80;21133;-45
2021/04/27 10:59:55;;;;;;;0.68;0.55;;;;;;;12.60;39.94;100606.09;1788180;80;21134;-45
2021/04/27 11:02:30;;;;;;;0.10;0.10;;;;;;;12.47;39.92;100604.30;1791645;80;21537;-45
2021/04/27 11:05:18;;;;;;;0.50;0.50;;;;;;;12.37;40.07;100606.32;1791674;80;21087;-45
2021/04/27 11:07:46;;;;;;;0.03;0.03;;;;;;;12.36;40.13;100595.08;1791046;80;21137;-45
2021/04/27 11:10:20;;;;;;;0.20;0.20;;;;;;;12.33;40.40;100595.09;1778323;80;21134;-45
2021/04/27 11:12:58;;;;;;;0.50;0.50;;;;;;;12.25;40.06;100599.84;1757633;81;21126;-45
2021/04/27 11:15:32;;;;;;;0.30;0.30;;;;;;;12.07;40.22;100596.41;1759419;81;21137;-45
2021/04/27 11:18:16;;;;;;;0.55;0.55;;;;;;;11.88;41.12;100598.47;1756290;80;21836;-45
2021/04/27 11:20:52;;;;;;;0.20;0.10;;;;;;;11.74;41.27;100601.54;1755970;81;21122;-45
2021/04/27 11:23:56;;;;;;;0.33;0.33;;;;;;;11.70;42.60;100598.56;1756060;81;21154;-45
2021/04/27 11:26:40;;;;;;;0.33;0.28;;;;;;;11.75;42.76;100592.24;1756296;81;21120;-45
2021/04/27 11:29:17;;;;;;;0.17;0.17;;;;;;;11.79;41.48;100582.34;1756243;81;21469;-45
2021/04/27 11:32:01;;;;;;;0.15;0.15;;;;;;;11.82;42.16;100590.01;1756102;81;21090;-45
2021/04/27 11:34:31;;;;;;;0.55;0.20;;;;;;;11.77;41.33;100598.22;1757361;80;21126;-45
2021/04/27 11:36:59;;;;;;;0.53;0.53;;;;;;;11.67;41.77;100591.45;1756073;80;21167;-45
2021/04/27 11:39:28;;;;;;;0.20;0.13;;;;;;;11.61;41.46;100590.11;1790397;80;21129;-45
2021/04/27 11:41:59;;;;;;;0.45;0.20;;;;;;;11.52;41.41;100591.83;1750863;81;21111;-44
2021/04/27 11:44:37;;;;;;;0.20;0.20;;;;;;;11.44;41.37;100584.19;1724281;83;21600;-45